Time;durP1;ratioP1;P1;durP2;ratioP2;P2;SDS_P1;SDS_P2;PMS_P1;PMS_P2;Temp;Humidity;BMP_temperature;BMP_pressure;BME280_temperature;BME280_humidity;BME280_pressure;Samples;Min_cycle;Max_cycle;Signal;HPM_P1;HPM_P2
2022/12/19 00:01:15;;;;;;;39.17;26.30;;;11.60;67.00;;;;;;4589465;19;20400;-29
2022/12/19 00:02:46;;;;;;;43.90;29.37;;;11.60;66.90;;;;;;4588816;19;20464;-28
2022/12/19 00:04:18;;;;;;;41.83;29.10;;;11.60;67.10;;;;;;4589661;19;21024;-30
2022/12/19 00:05:49;;;;;;;40.03;27.90;;;11.60;67.10;;;;;;4590517;19;20629;-28
2022/12/19 00:07:20;;;;;;;41.58;28.17;;;11.60;67.00;;;;;;4590709;19;20532;-29
2022/12/19 00:08:52;;;;;;;36.08;25.65;;;11.60;67.20;;;;;;4591036;19;20020;-29
2022/12/19 00:10:23;;;;;;;40.63;27.23;;;11.60;66.90;;;;;;4589299;19;20025;-30
2022/12/19 00:11:54;;;;;;;40.22;28.05;;;11.60;67.00;;;;;;4590062;19;20014;-29
2022/12/19 00:13:26;;;;;;;40.83;27.58;;;11.60;67.10;;;;;;4590876;19;20041;-30
2022/12/19 00:14:57;;;;;;;39.50;27.20;;;11.60;67.10;;;;;;4590869;19;20489;-33
2022/12/19 00:16:28;;;;;;;40.65;27.80;;;11.60;66.80;;;;;;4590376;19;20030;-32
2022/12/19 00:17:59;;;;;;;;;;;11.60;67.00;;;;;;4590254;19;20066;-32
2022/12/19 00:19:30;;;;;;;41.57;27.53;;;11.60;67.10;;;;;;4589874;19;19922;-29
2022/12/19 00:21:03;;;;;;;40.63;28.10;;;11.60;67.10;;;;;;4590287;19;20106;-29
2022/12/19 00:22:34;;;;;;;40.27;26.20;;;11.50;67.00;;;;;;4590032;19;20014;-30
2022/12/19 00:24:06;;;;;;;39.03;27.20;;;11.50;66.80;;;;;;4589759;19;20803;-29
2022/12/19 00:25:37;;;;;;;37.13;25.27;;;11.50;66.60;;;;;;4590228;19;20018;-28
2022/12/19 00:27:08;;;;;;;41.08;27.75;;;11.50;66.70;;;;;;4589896;19;20448;-29
2022/12/19 00:28:41;;;;;;;44.55;29.77;;;11.50;66.60;;;;;;4590275;19;20593;-29
2022/12/19 00:30:12;;;;;;;42.87;29.33;;;11.60;66.70;;;;;;4588819;19;20495;-28
2022/12/19 00:31:44;;;;;;;41.72;29.42;;;11.60;66.60;;;;;;4590131;19;20444;-28
2022/12/19 00:33:15;;;;;;;41.40;28.38;;;11.60;66.60;;;;;;4589847;19;20479;-30
2022/12/19 00:34:46;;;;;;;41.33;29.40;;;11.60;66.80;;;;;;4590114;19;20010;-30
2022/12/19 00:36:22;;;;;;;42.83;28.55;;;11.60;66.70;;;;;;4590127;19;20006;-29
2022/12/19 00:37:53;;;;;;;42.17;28.17;;;11.60;66.50;;;;;;4590339;19;20018;-29
2022/12/19 00:39:24;;;;;;;43.67;29.70;;;11.60;66.60;;;;;;4589811;19;20432;-29
2022/12/19 00:41:15;;;;;;;43.50;29.25;;;11.50;66.60;;;;;;4589933;19;20017;-28
2022/12/19 00:42:46;;;;;;;41.87;30.23;;;11.50;66.60;;;;;;4589903;19;20007;-30
2022/12/19 00:44:17;;;;;;;46.60;31.45;;;11.50;66.70;;;;;;4589341;19;20490;-29
2022/12/19 00:45:48;;;;;;;44.08;29.40;;;11.50;66.60;;;;;;4589914;19;20102;-31
2022/12/19 00:47:19;;;;;;;45.65;29.83;;;11.50;66.60;;;;;;4589870;19;20007;-29
2022/12/19 00:48:50;;;;;;;46.28;31.83;;;11.60;66.50;;;;;;4589872;19;20398;-28
2022/12/19 00:50:22;;;;;;;41.50;30.00;;;11.50;66.50;;;;;;4588717;19;20037;-30
2022/12/19 00:51:55;;;;;;;49.67;33.42;;;11.50;66.50;;;;;;4589556;19;20048;-29
2022/12/19 00:53:27;;;;;;;46.37;29.53;;;11.50;66.70;;;;;;4589771;19;20015;-30
2022/12/19 00:54:58;;;;;;;49.05;31.52;;;11.50;66.70;;;;;;4589739;19;20429;-29
2022/12/19 00:56:31;;;;;;;49.35;33.03;;;11.50;67.80;;;;;;4590111;19;20032;-28
2022/12/19 00:58:02;;;;;;;47.00;31.20;;;11.50;69.00;;;;;;4589655;19;20080;-28
2022/12/19 00:59:33;;;;;;;47.58;31.13;;;11.50;69.30;;;;;;4589882;19;20470;-28
2022/12/19 01:01:06;;;;;;;46.30;31.95;;;11.60;69.20;;;;;;4589348;19;20026;-30
2022/12/19 01:02:37;;;;;;;49.97;34.13;;;11.60;69.10;;;;;;4588879;19;20014;-29
2022/12/19 01:04:12;;;;;;;49.15;33.60;;;11.60;68.80;;;;;;4589021;19;20532;-29
2022/12/19 01:05:43;;;;;;;56.40;35.60;;;11.60;68.60;;;;;;4589572;19;20491;-31
2022/12/19 01:07:14;;;;;;;58.90;37.00;;;11.60;68.20;;;;;;4589818;19;20465;-29
2022/12/19 01:08:46;;;;;;;54.85;37.10;;;11.60;68.10;;;;;;4589430;19;20436;-28
2022/12/19 01:10:17;;;;;;;53.92;36.58;;;11.60;67.90;;;;;;4589410;19;20047;-29
2022/12/19 01:13:38;;;;;;;48.53;32.17;;;11.50;67.50;;;;;;4589477;19;20006;-31
2022/12/19 01:15:09;;;;;;;53.03;33.55;;;11.50;67.40;;;;;;4589358;19;20791;-29
2022/12/19 01:16:40;;;;;;;51.72;34.55;;;11.50;67.20;;;;;;4589532;19;20015;-29
2022/12/19 01:18:11;;;;;;;47.95;34.10;;;11.50;67.10;;;;;;4589283;19;20018;-31
2022/12/19 01:19:43;;;;;;;50.40;34.53;;;11.50;67.00;;;;;;4589576;19;20003;-31
2022/12/19 01:21:14;;;;;;;48.05;33.47;;;11.50;67.10;;;;;;4589183;19;20018;-29
2022/12/19 01:22:45;;;;;;;48.38;33.22;;;11.50;66.80;;;;;;4589154;19;20117;-28
2022/12/19 01:24:16;;;;;;;49.90;35.35;;;11.50;66.80;;;;;;4588667;19;20007;-29
2022/12/19 01:25:48;;;;;;;52.15;37.17;;;11.40;66.70;;;;;;4589339;19;20010;-28
2022/12/19 01:27:20;;;;;;;55.73;36.17;;;11.50;66.90;;;;;;4587985;19;20074;-31
2022/12/19 01:28:51;;;;;;;48.97;33.63;;;11.50;66.80;;;;;;4587791;19;20449;-28
2022/12/19 01:30:22;;;;;;;49.85;34.15;;;11.50;66.80;;;;;;4588569;19;20498;-31
2022/12/19 01:31:53;;;;;;;48.72;32.30;;;11.40;66.70;;;;;;4589202;19;20029;-29
2022/12/19 01:33:24;;;;;;;51.63;33.83;;;11.50;66.60;;;;;;4588881;19;20046;-30
2022/12/19 01:34:55;;;;;;;47.30;32.42;;;11.40;66.50;;;;;;4589140;19;20015;-31
2022/12/19 01:36:27;;;;;;;46.17;33.50;;;11.50;66.60;;;;;;4589044;19;20344;-31
2022/12/19 01:37:58;;;;;;;46.78;32.10;;;11.50;66.70;;;;;;4588865;19;20007;-31
2022/12/19 01:39:29;;;;;;;47.63;32.13;;;11.50;66.70;;;;;;4589003;19;20086;-28
2022/12/19 01:41:01;;;;;;;50.65;35.63;;;11.40;66.60;;;;;;4588720;19;20593;-30
2022/12/19 01:42:35;;;;;;;50.78;35.13;;;11.40;66.60;;;;;;4588796;19;20014;-29
2022/12/19 01:44:07;;;;;;;51.77;36.33;;;11.50;66.60;;;;;;4588121;19;20028;-30
2022/12/19 01:45:38;;;;;;;;;;;11.50;66.40;;;;;;4588561;19;20582;-28
2022/12/19 01:47:09;;;;;;;50.87;35.63;;;11.50;66.40;;;;;;4587474;19;20265;-28
2022/12/19 01:48:42;;;;;;;52.35;36.60;;;11.50;66.30;;;;;;4587831;19;20007;-32
2022/12/19 01:50:16;;;;;;;49.67;35.57;;;11.50;66.40;;;;;;4587410;19;20048;-32
2022/12/19 01:51:47;;;;;;;53.53;35.63;;;11.50;66.30;;;;;;4587553;19;20484;-30
2022/12/19 01:53:18;;;;;;;47.20;33.63;;;11.50;66.30;;;;;;4587865;19;20458;-29
2022/12/19 01:54:49;;;;;;;52.13;36.58;;;11.50;66.40;;;;;;4587576;19;20010;-29
2022/12/19 01:56:23;;;;;;;50.05;34.40;;;11.50;66.40;;;;;;4587346;19;20354;-30
2022/12/19 01:57:54;;;;;;;48.50;34.87;;;11.50;66.50;;;;;;4588272;19;20037;-29
2022/12/19 01:59:31;;;;;;;50.25;35.45;;;11.40;66.40;;;;;;4587075;19;20449;-29
2022/12/19 02:01:02;;;;;;;46.87;34.00;;;11.40;66.80;;;;;;4588333;19;20504;-30
2022/12/19 02:02:36;;;;;;;46.83;31.83;;;11.40;66.70;;;;;;4591352;19;20429;-29
2022/12/19 02:04:07;;;;;;;46.90;31.07;;;11.40;66.70;;;;;;4592371;19;20081;-30
2022/12/19 02:05:39;;;;;;;43.08;33.00;;;11.50;66.80;;;;;;4592181;19;21066;-28
2022/12/19 02:07:10;;;;;;;46.30;32.35;;;11.50;66.50;;;;;;4591830;19;20373;-30
2022/12/19 02:08:41;;;;;;;46.45;33.83;;;11.50;66.60;;;;;;4591834;19;20472;-27
2022/12/19 02:10:12;;;;;;;45.20;34.40;;;11.60;66.50;;;;;;4591903;19;20049;-31
2022/12/19 02:11:43;;;;;;;44.80;33.15;;;11.70;66.20;;;;;;4592901;19;20010;-29
2022/12/19 02:13:14;;;;;;;46.30;33.35;;;11.70;66.30;;;;;;4592869;19;20364;-30
2022/12/19 02:14:46;;;;;;;48.58;35.33;;;11.80;66.00;;;;;;4591527;19;20472;-31
2022/12/19 02:16:40;;;;;;;44.70;33.45;;;11.80;66.00;;;;;;4592707;19;20452;-30
2022/12/19 02:18:17;;;;;;;46.90;33.27;;;11.90;66.10;;;;;;4591821;19;20006;-28
2022/12/19 02:19:57;;;;;;;47.77;33.87;;;11.90;66.00;;;;;;4591793;19;20421;-31
2022/12/19 02:21:46;;;;;;;44.43;33.13;;;12.00;66.00;;;;;;4592362;19;20495;-31
2022/12/19 02:23:50;;;;;;;46.30;32.47;;;12.00;66.00;;;;;;4592619;19;20760;-29
2022/12/19 02:25:42;;;;;;;44.90;32.33;;;12.00;66.00;;;;;;4590469;19;21004;-29
2022/12/19 02:27:29;;;;;;;47.88;36.33;;;12.00;66.00;;;;;;4590344;19;20494;-29
2022/12/19 02:29:24;;;;;;;46.07;33.80;;;12.00;66.00;;;;;;4590508;19;20019;-30
2022/12/19 02:31:07;;;;;;;46.40;35.67;;;12.00;66.00;;;;;;4590536;19;20528;-27
2022/12/19 02:32:53;;;;;;;46.80;34.40;;;12.10;66.10;;;;;;4590690;19;20421;-30
2022/12/19 02:34:36;;;;;;;45.87;35.07;;;12.10;66.10;;;;;;4590599;19;20421;-28
2022/12/19 02:36:14;;;;;;;42.13;32.07;;;12.10;66.00;;;;;;4589963;19;20460;-29
2022/12/19 02:38:09;;;;;;;46.63;32.40;;;12.10;66.00;;;;;;4590401;19;20464;-29
2022/12/19 02:39:45;;;;;;;45.67;33.93;;;12.10;66.10;;;;;;4590148;19;20806;-30
2022/12/19 02:41:42;;;;;;;42.77;32.90;;;12.10;66.10;;;;;;4590315;19;21044;-30
2022/12/19 02:43:13;;;;;;;45.17;33.70;;;12.10;65.90;;;;;;4590253;19;20405;-28
2022/12/19 02:44:46;;;;;;;43.63;32.63;;;12.10;65.90;;;;;;4588795;19;20496;-29
2022/12/19 02:46:17;;;;;;;43.00;32.53;;;12.10;65.70;;;;;;4590039;19;20014;-28
2022/12/19 02:47:48;;;;;;;44.50;30.70;;;12.10;65.80;;;;;;4589944;19;21025;-31
2022/12/19 02:49:20;;;;;;;40.60;29.95;;;12.10;65.80;;;;;;4589962;19;20019;-30
2022/12/19 02:50:51;;;;;;;40.05;29.52;;;12.10;65.40;;;;;;4589991;19;20074;-29
2022/12/19 02:52:22;;;;;;;42.53;31.63;;;12.00;65.50;;;;;;4589849;19;20021;-31
2022/12/19 02:53:53;;;;;;;40.50;29.83;;;12.00;65.40;;;;;;4590067;19;20018;-28
2022/12/19 02:55:24;;;;;;;42.60;30.50;;;12.00;65.50;;;;;;4589846;19;20192;-28
2022/12/19 02:57:00;;;;;;;40.53;28.70;;;12.00;65.50;;;;;;4589700;19;20532;-28
2022/12/19 02:58:39;;;;;;;39.40;29.50;;;12.00;65.50;;;;;;4589636;19;20043;-30
2022/12/19 03:00:19;;;;;;;42.20;30.73;;;12.00;65.40;;;;;;4589284;19;20918;-30
2022/12/19 03:01:50;;;;;;;42.77;31.47;;;12.00;65.50;;;;;;4590396;19;20507;-30
2022/12/19 03:03:27;;;;;;;41.08;30.70;;;11.90;65.50;;;;;;4591397;19;21109;-30
2022/12/19 03:05:08;;;;;;;44.27;32.57;;;11.90;65.40;;;;;;4590906;19;20022;-31
2022/12/19 03:06:41;;;;;;;43.07;32.17;;;11.90;65.30;;;;;;4593285;19;20421;-30
2022/12/19 03:08:21;;;;;;;41.00;28.77;;;11.90;65.50;;;;;;4593527;19;20526;-31
2022/12/19 03:10:18;;;;;;;42.00;29.90;;;11.90;65.50;;;;;;4591950;19;20525;-29
2022/12/19 03:11:50;;;;;;;36.33;28.23;;;11.90;65.40;;;;;;4591975;19;20911;-29
2022/12/19 03:13:55;;;;;;;39.03;30.20;;;11.90;65.40;;;;;;4590031;19;20533;-30
2022/12/19 03:15:27;;;;;;;38.53;28.40;;;11.90;65.30;;;;;;4590993;19;20493;-29
2022/12/19 03:17:03;;;;;;;38.47;28.63;;;11.90;65.30;;;;;;4591535;19;20530;-29
2022/12/19 03:18:35;;;;;;;35.17;26.83;;;11.80;65.20;;;;;;4590925;19;20704;-30
2022/12/19 03:20:10;;;;;;;35.47;28.07;;;11.80;65.20;;;;;;4589807;19;20563;-30
2022/12/19 03:21:45;;;;;;;37.37;28.63;;;11.80;65.20;;;;;;4591731;19;20449;-29
2022/12/19 03:23:16;;;;;;;40.13;29.57;;;11.80;65.00;;;;;;4589477;19;20521;-28
2022/12/19 03:24:48;;;;;;;41.80;30.38;;;11.80;65.10;;;;;;4590343;19;20514;-30
2022/12/19 03:26:21;;;;;;;37.15;28.13;;;11.80;65.00;;;;;;4591114;19;20014;-31
2022/12/19 03:27:52;;;;;;;34.43;28.00;;;11.80;65.10;;;;;;4591522;19;20337;-28
2022/12/19 03:29:37;;;;;;;35.50;27.20;;;11.80;65.00;;;;;;4589220;19;20453;-29
2022/12/19 03:31:08;;;;;;;38.80;30.50;;;11.80;64.90;;;;;;4589084;19;20026;-29
2022/12/19 03:32:40;;;;;;;40.58;32.40;;;11.80;65.00;;;;;;4591530;19;20469;-31
2022/12/19 03:34:24;;;;;;;42.67;34.87;;;11.80;65.00;;;;;;4590221;19;20105;-32
2022/12/19 03:35:55;;;;;;;39.37;31.97;;;11.80;65.00;;;;;;4591720;19;20468;-30
2022/12/19 03:37:29;;;;;;;38.53;30.98;;;11.80;64.90;;;;;;4587944;19;21064;-29
2022/12/19 03:39:01;;;;;;;38.30;31.60;;;11.70;64.90;;;;;;4591726;19;20025;-29
2022/12/19 03:40:32;;;;;;;37.75;30.15;;;11.70;64.90;;;;;;4588674;19;20855;-31
2022/12/19 03:43:53;;;;;;;35.07;27.47;;;11.70;64.80;;;;;;4588539;19;20038;-28
2022/12/19 03:45:29;;;;;;;36.80;25.65;;;11.70;64.80;;;;;;4588914;19;20528;-32
2022/12/19 03:47:36;;;;;;;33.77;26.27;;;11.70;64.70;;;;;;4588761;19;20030;-28
2022/12/19 03:49:07;;;;;;;32.30;23.40;;;11.70;64.80;;;;;;4588230;19;20488;-32
2022/12/19 03:50:47;;;;;;;31.50;22.73;;;11.70;64.70;;;;;;4588511;19;20815;-31
2022/12/19 03:52:45;;;;;;;36.13;25.47;;;11.70;64.80;;;;;;4588806;19;20015;-32
2022/12/19 03:54:19;;;;;;;33.83;24.53;;;11.70;64.90;;;;;;4588727;19;20632;-30
2022/12/19 03:56:04;;;;;;;32.60;23.40;;;11.70;64.70;;;;;;4588871;19;20440;-34
2022/12/19 03:57:57;;;;;;;33.60;24.40;;;11.70;64.70;;;;;;4589113;19;20481;-29
2022/12/19 03:59:35;;;;;;;34.73;23.77;;;11.70;64.70;;;;;;4588525;19;20481;-29
2022/12/19 04:01:07;;;;;;;33.60;22.00;;;11.70;64.70;;;;;;4588289;19;20481;-32
2022/12/19 04:02:39;;;;;;;30.70;22.05;;;11.70;64.60;;;;;;4587287;19;21045;-32
2022/12/19 04:04:11;;;;;;;31.20;24.67;;;11.70;64.60;;;;;;4590344;19;20029;-27
2022/12/19 04:05:42;;;;;;;37.85;26.50;;;11.70;64.50;;;;;;4590587;19;20472;-30
2022/12/19 04:07:13;;;;;;;33.00;25.23;;;11.60;64.50;;;;;;4588443;19;20038;-28
2022/12/19 04:08:45;;;;;;;34.30;26.50;;;11.60;64.50;;;;;;4588054;19;20022;-32
2022/12/19 04:10:17;;;;;;;30.45;23.92;;;11.60;64.20;;;;;;4588342;19;20441;-31
2022/12/19 04:11:52;;;;;;;34.23;26.23;;;11.60;64.20;;;;;;4588131;19;20007;-31
2022/12/19 04:13:32;;;;;;;31.50;22.60;;;11.60;64.30;;;;;;4588312;19;20544;-30
2022/12/19 04:15:04;;;;;;;30.10;22.93;;;11.50;64.20;;;;;;4588360;19;20416;-31
2022/12/19 04:16:43;;;;;;;31.77;23.63;;;11.50;64.20;;;;;;4590718;19;20515;-31
2022/12/19 04:18:15;;;;;;;31.77;22.67;;;11.50;64.40;;;;;;4590181;19;20503;-30
2022/12/19 04:19:58;;;;;;;32.28;23.85;;;11.50;64.40;;;;;;4588125;19;20465;-29
2022/12/19 04:21:32;;;;;;;33.40;23.50;;;11.50;64.20;;;;;;4588022;19;20017;-32
2022/12/19 04:23:11;;;;;;;31.57;22.77;;;11.40;64.30;;;;;;4588082;19;20425;-30
2022/12/19 04:24:42;;;;;;;34.70;25.83;;;11.40;64.40;;;;;;4584917;19;21077;-28
2022/12/19 04:26:13;;;;;;;34.83;25.05;;;11.40;64.40;;;;;;4590504;19;20449;-30
2022/12/19 04:27:47;;;;;;;33.58;24.48;;;11.40;64.30;;;;;;4589733;19;20476;-31
2022/12/19 04:29:18;;;;;;;34.30;23.17;;;11.40;64.30;;;;;;4589316;19;20016;-31
2022/12/19 04:30:49;;;;;;;32.53;23.42;;;11.30;64.30;;;;;;4589640;19;20792;-31
2022/12/19 04:32:21;;;;;;;34.13;24.77;;;11.30;64.30;;;;;;4590017;19;20082;-33
2022/12/19 04:33:52;;;;;;;34.63;23.42;;;11.30;64.30;;;;;;4590140;19;20047;-32
2022/12/19 04:35:23;;;;;;;35.03;24.27;;;11.30;64.50;;;;;;4592048;19;20013;-30
2022/12/19 04:36:54;;;;;;;34.95;23.83;;;11.30;64.50;;;;;;4591357;19;20017;-30
2022/12/19 04:38:25;;;;;;;33.17;23.50;;;11.30;64.40;;;;;;4589531;19;20002;-30
2022/12/19 04:39:57;;;;;;;32.67;24.73;;;11.30;64.30;;;;;;4590261;19;20014;-30
2022/12/19 04:41:28;;;;;;;35.40;25.17;;;11.30;64.20;;;;;;4591164;19;20014;-30
2022/12/19 04:42:59;;;;;;;40.47;27.48;;;11.30;64.40;;;;;;4589574;19;20463;-28
2022/12/19 04:44:30;;;;;;;42.70;29.90;;;11.30;64.20;;;;;;4588962;19;20010;-30
2022/12/19 04:46:02;;;;;;;36.67;25.88;;;11.30;64.20;;;;;;4590229;19;20078;-32
2022/12/19 04:47:33;;;;;;;33.40;24.65;;;11.40;64.40;;;;;;4588860;19;20015;-31
2022/12/19 04:49:04;;;;;;;33.03;24.10;;;11.50;64.20;;;;;;4589473;19;20029;-29
2022/12/19 04:50:36;;;;;;;36.17;24.73;;;11.60;64.20;;;;;;4589967;19;20483;-29
2022/12/19 04:52:07;;;;;;;38.53;24.73;;;11.60;63.90;;;;;;4589702;19;20015;-28
2022/12/19 04:53:38;;;;;;;37.50;24.70;;;11.70;63.90;;;;;;4589854;19;20011;-31
2022/12/19 04:55:09;;;;;;;30.92;23.95;;;11.70;63.90;;;;;;4590276;19;20084;-30
2022/12/19 04:56:40;;;;;;;41.88;29.85;;;11.70;64.20;;;;;;4589635;19;20010;-29
2022/12/19 04:58:11;;;;;;;62.88;46.88;;;11.70;64.00;;;;;;4589636;19;20014;-29
2022/12/19 04:59:43;;;;;;;45.15;33.63;;;11.80;64.00;;;;;;4589203;19;20345;-33
2022/12/19 05:01:14;;;;;;;34.20;24.73;;;11.80;63.90;;;;;;4587255;19;20014;-28
2022/12/19 05:02:45;;;;;;;39.40;29.77;;;11.80;63.80;;;;;;4589385;19;20022;-29
2022/12/19 05:04:16;;;;;;;32.13;23.92;;;11.70;63.90;;;;;;4591838;19;20070;-29
2022/12/19 05:05:47;;;;;;;34.10;24.42;;;11.50;63.80;;;;;;4592855;19;20010;-29
2022/12/19 05:07:18;;;;;;;34.67;23.70;;;8.80;66.60;;;;;;4587989;19;20515;-29
2022/12/19 05:08:50;;;;;;;34.45;22.70;;;7.00;70.30;;;;;;4588612;19;20524;-28
2022/12/19 05:10:21;;;;;;;34.10;22.02;;;6.10;72.80;;;;;;4586443;19;20531;-30
2022/12/19 05:11:52;;;;;;;37.28;24.80;;;5.60;73.60;;;;;;4586307;19;20006;-28
2022/12/19 05:13:23;;;;;;;35.22;23.15;;;5.30;74.60;;;;;;4586782;19;20020;-28
2022/12/19 05:14:54;;;;;;;41.63;28.70;;;5.10;75.40;;;;;;4586507;19;20006;-29
2022/12/19 05:16:25;;;;;;;40.13;26.25;;;5.00;75.70;;;;;;4586406;19;20017;-31
2022/12/19 05:17:57;;;;;;;44.97;30.55;;;4.90;75.90;;;;;;4587310;19;20006;-31
2022/12/19 05:19:28;;;;;;;40.97;28.13;;;4.80;76.00;;;;;;4586461;19;20014;-31
2022/12/19 05:20:59;;;;;;;36.05;23.02;;;4.70;76.60;;;;;;4586385;19;20015;-30
2022/12/19 05:22:30;;;;;;;37.00;23.98;;;4.60;76.70;;;;;;4587716;19;20111;-29
2022/12/19 05:24:01;;;;;;;37.15;23.73;;;4.60;76.60;;;;;;4587631;19;20019;-29
2022/12/19 05:25:34;;;;;;;39.83;26.05;;;4.50;76.80;;;;;;4587901;19;20038;-31
2022/12/19 05:27:05;;;;;;;33.70;21.15;;;4.50;76.60;;;;;;4587483;19;20030;-28
2022/12/19 05:28:36;;;;;;;38.00;26.35;;;4.40;76.70;;;;;;4587863;19;20504;-28
2022/12/19 05:30:08;;;;;;;33.75;22.88;;;4.40;77.40;;;;;;4587340;19;20075;-28
2022/12/19 05:31:40;;;;;;;42.25;25.77;;;4.30;77.30;;;;;;4587864;19;20037;-28
2022/12/19 05:33:11;;;;;;;38.00;23.98;;;4.30;77.20;;;;;;4586845;19;20040;-30
2022/12/19 05:34:42;;;;;;;36.13;22.83;;;4.20;77.40;;;;;;4587671;19;20034;-30
2022/12/19 05:36:14;;;;;;;37.08;25.88;;;4.20;77.50;;;;;;4590299;19;20373;-29
2022/12/19 05:37:45;;;;;;;38.72;28.63;;;4.20;77.50;;;;;;4592854;19;20010;-30
2022/12/19 05:39:16;;;;;;;43.85;30.70;;;4.10;77.60;;;;;;4592174;19;20536;-28
2022/12/19 05:40:47;;;;;;;32.30;22.35;;;4.10;77.60;;;;;;4592834;19;20015;-30
2022/12/19 05:42:18;;;;;;;37.28;24.67;;;4.00;77.40;;;;;;4593833;19;20333;-29
2022/12/19 05:43:51;;;;;;;37.72;24.17;;;4.00;77.90;;;;;;4594486;19;20581;-30
2022/12/19 05:45:23;;;;;;;34.42;22.67;;;4.00;77.40;;;;;;4593243;19;20019;-31
2022/12/19 05:46:54;;;;;;;34.15;22.05;;;4.00;77.80;;;;;;4592590;19;20014;-31
2022/12/19 05:48:25;;;;;;;34.42;22.60;;;4.00;77.60;;;;;;4593510;19;20007;-30
2022/12/19 05:49:56;;;;;;;32.80;20.92;;;4.00;77.90;;;;;;4593888;19;20014;-28
2022/12/19 05:51:27;;;;;;;35.10;21.52;;;4.00;77.90;;;;;;4594422;19;20007;-33
2022/12/19 05:52:58;;;;;;;35.70;22.65;;;4.00;77.90;;;;;;4594772;19;20062;-29
2022/12/19 05:54:30;;;;;;;36.33;22.42;;;3.90;77.50;;;;;;4594945;19;20014;-30
2022/12/19 05:56:08;;;;;;;37.75;24.15;;;3.90;77.80;;;;;;4593872;19;20018;-30
2022/12/19 05:57:40;;;;;;;35.50;22.23;;;3.90;77.90;;;;;;4592834;19;20095;-29
2022/12/19 05:59:11;;;;;;;34.28;20.80;;;3.90;78.10;;;;;;4593982;19;20023;-29
2022/12/19 06:00:42;;;;;;;39.42;23.75;;;3.80;78.10;;;;;;4594738;19;20033;-30
2022/12/19 06:02:13;;;;;;;36.90;23.25;;;3.90;77.90;;;;;;4593995;19;20014;-29
2022/12/19 06:03:45;;;;;;;38.08;24.70;;;3.80;78.50;;;;;;4592082;19;20027;-28
2022/12/19 06:05:16;;;;;;;42.22;26.58;;;3.90;78.30;;;;;;4592347;19;20014;-29
2022/12/19 06:06:47;;;;;;;43.13;27.40;;;3.90;77.60;;;;;;4594118;19;20017;-29
2022/12/19 06:08:18;;;;;;;40.83;24.42;;;3.80;77.90;;;;;;4594016;19;20074;-30
2022/12/19 06:09:50;;;;;;;48.35;28.00;;;4.80;77.10;;;;;;4593048;19;20006;-29
2022/12/19 06:11:22;;;;;;;50.17;27.83;;;6.20;74.20;;;;;;4592763;19;20367;-31
2022/12/19 06:12:53;;;;;;;46.97;27.23;;;7.20;72.10;;;;;;4592401;19;20038;-31
2022/12/19 06:14:24;;;;;;;68.80;34.97;;;7.80;70.80;;;;;;4593486;19;20026;-30
2022/12/19 06:15:59;;;;;;;62.20;34.03;;;8.30;70.00;;;;;;4594242;19;20010;-30
2022/12/19 06:17:31;;;;;;;120.37;57.07;;;8.50;69.20;;;;;;4594284;19;20015;-31
2022/12/19 06:19:02;;;;;;;95.90;47.13;;;8.70;68.80;;;;;;4593425;19;20479;-29
2022/12/19 06:20:33;;;;;;;58.20;33.05;;;8.90;68.40;;;;;;4593781;19;20011;-32
2022/12/19 06:22:04;;;;;;;135.93;65.70;;;9.10;68.30;;;;;;4592946;19;20021;-29
2022/12/19 06:23:35;;;;;;;76.05;40.35;;;9.20;67.90;;;;;;4592976;19;20067;-29
2022/12/19 06:25:08;;;;;;;106.05;49.30;;;9.30;67.60;;;;;;4590884;19;20014;-29
2022/12/19 06:26:39;;;;;;;108.93;54.40;;;9.40;67.40;;;;;;4593107;19;20402;-30
2022/12/19 06:28:11;;;;;;;168.45;85.00;;;9.50;67.40;;;;;;4593981;19;20425;-30
2022/12/19 06:29:42;;;;;;;120.83;72.30;;;9.50;67.10;;;;;;4592374;19;20363;-29
2022/12/19 06:31:14;;;;;;;90.82;58.75;;;9.60;66.70;;;;;;4592794;19;20449;-30
2022/12/19 06:32:45;;;;;;;41.75;29.60;;;9.70;66.60;;;;;;4593883;19;20028;-30
2022/12/19 06:34:16;;;;;;;50.17;32.25;;;9.80;66.60;;;;;;4593958;19;20019;-31
2022/12/19 06:35:48;;;;;;;91.72;57.53;;;9.90;66.50;;;;;;4593092;19;20374;-29
2022/12/19 06:37:19;;;;;;;139.85;84.43;;;10.00;66.30;;;;;;4592296;19;20011;-29
2022/12/19 06:38:50;;;;;;;96.55;56.20;;;10.00;66.10;;;;;;4593286;19;20029;-33
2022/12/19 06:42:23;;;;;;;270.70;127.87;;;9.00;65.80;;;;;;4592859;19;19929;-32
2022/12/19 06:43:58;;;;;;;141.80;68.87;;;7.60;69.90;;;;;;4592745;19;20429;-28
2022/12/19 06:45:30;;;;;;;194.60;93.27;;;8.50;69.10;;;;;;4593497;19;21007;-32
2022/12/19 06:47:01;;;;;;;230.32;109.57;;;9.10;67.90;;;;;;4592302;19;21115;-29
2022/12/19 06:48:32;;;;;;;179.00;87.68;;;9.50;67.10;;;;;;4591710;19;20470;-29
2022/12/19 06:50:03;;;;;;;127.82;65.03;;;9.70;66.60;;;;;;4591687;19;20011;-29
2022/12/19 06:51:34;;;;;;;110.65;53.58;;;10.00;66.30;;;;;;4592789;19;20367;-29
2022/12/19 06:53:05;;;;;;;172.77;96.20;;;10.10;66.10;;;;;;4593608;19;20037;-29
2022/12/19 06:54:37;;;;;;;163.75;82.38;;;10.20;66.10;;;;;;4592739;19;20031;-30
2022/12/19 06:56:08;;;;;;;192.20;94.82;;;10.30;65.70;;;;;;4593038;19;20025;-29
2022/12/19 06:57:44;;;;;;;121.50;60.20;;;10.30;65.50;;;;;;4591746;19;20014;-30
2022/12/19 06:59:16;;;;;;;74.70;44.43;;;10.40;65.60;;;;;;4592737;19;20468;-29
2022/12/19 07:00:47;;;;;;;90.93;50.05;;;10.40;65.30;;;;;;4592568;19;20479;-30
2022/12/19 07:02:26;;;;;;;82.93;47.53;;;10.50;65.30;;;;;;4592940;19;20503;-34
2022/12/19 07:03:57;;;;;;;57.93;35.77;;;10.50;65.30;;;;;;4591947;19;20344;-30
2022/12/19 07:05:28;;;;;;;81.32;46.75;;;10.60;65.30;;;;;;4591649;19;20905;-31
2022/12/19 07:06:59;;;;;;;58.40;36.15;;;10.50;65.10;;;;;;4592227;19;20015;-29
2022/12/19 07:08:32;;;;;;;50.72;32.63;;;10.60;65.10;;;;;;4591709;19;20018;-29
2022/12/19 07:10:05;;;;;;;54.23;32.43;;;10.60;65.10;;;;;;4592296;19;20015;-32
2022/12/19 07:11:36;;;;;;;45.10;28.92;;;10.60;65.00;;;;;;4592557;19;20449;-30
2022/12/19 07:13:08;;;;;;;66.03;40.17;;;10.70;65.00;;;;;;4592367;19;20041;-29
2022/12/19 07:14:39;;;;;;;111.03;61.97;;;10.70;64.90;;;;;;4592685;19;20464;-29
2022/12/19 07:16:10;;;;;;;93.00;51.97;;;10.70;65.10;;;;;;4593016;19;20003;-31
2022/12/19 07:17:42;;;;;;;95.78;51.97;;;10.70;65.00;;;;;;4592026;19;20015;-30
2022/12/19 07:19:13;;;;;;;54.65;32.83;;;10.70;64.90;;;;;;4591804;19;20363;-29
2022/12/19 07:20:44;;;;;;;50.72;31.88;;;10.70;65.60;;;;;;4592884;19;20010;-29
2022/12/19 07:22:15;;;;;;;72.80;42.80;;;10.80;64.90;;;;;;4591407;19;20538;-29
2022/12/19 07:23:47;;;;;;;69.30;40.28;;;10.80;64.80;;;;;;4592026;19;20007;-30
2022/12/19 07:25:18;;;;;;;68.60;41.28;;;10.80;64.60;;;;;;4589900;19;20017;-29
2022/12/19 07:26:49;;;;;;;65.40;38.65;;;10.80;64.80;;;;;;4592123;19;20403;-29
2022/12/19 07:28:20;;;;;;;63.90;38.10;;;10.80;64.80;;;;;;4592580;19;20388;-29
2022/12/19 07:29:51;;;;;;;63.08;38.30;;;10.80;64.50;;;;;;4591999;19;20354;-31
2022/12/19 07:31:23;;;;;;;79.45;45.67;;;10.90;64.70;;;;;;4592534;19;20011;-30
2022/12/19 07:32:54;;;;;;;62.47;35.47;;;10.80;65.10;;;;;;4591128;19;20015;-29
2022/12/19 07:34:25;;;;;;;69.82;40.03;;;10.80;64.60;;;;;;4590087;19;20022;-30
2022/12/19 07:35:56;;;;;;;106.18;56.63;;;10.90;64.50;;;;;;4590924;19;20010;-31
2022/12/19 07:37:27;;;;;;;55.80;32.83;;;10.90;64.50;;;;;;4591532;19;20333;-28
2022/12/19 07:38:58;;;;;;;52.97;30.77;;;10.80;64.40;;;;;;4591470;19;20499;-30
2022/12/19 07:40:31;;;;;;;43.67;28.92;;;10.90;64.50;;;;;;4591252;19;20359;-29
2022/12/19 07:42:02;;;;;;;53.00;31.47;;;10.90;64.50;;;;;;4589718;19;20015;-30
2022/12/19 07:43:33;;;;;;;51.67;31.10;;;10.90;64.40;;;;;;4590880;19;20429;-30
2022/12/19 07:45:06;;;;;;;54.38;32.00;;;10.90;64.50;;;;;;4590257;19;20018;-28
2022/12/19 07:46:37;;;;;;;52.47;31.45;;;11.00;64.30;;;;;;4590872;19;20013;-32
2022/12/19 07:48:08;;;;;;;72.57;40.47;;;11.10;64.40;;;;;;4591148;19;20400;-29
2022/12/19 07:49:41;;;;;;;60.60;34.87;;;11.10;64.20;;;;;;4591290;19;20015;-30
2022/12/19 07:51:15;;;;;;;60.25;35.47;;;11.20;64.10;;;;;;4591075;19;20516;-28
2022/12/19 07:52:46;;;;;;;48.37;30.23;;;11.30;64.30;;;;;;4590700;19;20014;-31
2022/12/19 07:54:17;;;;;;;63.10;36.35;;;11.20;64.10;;;;;;4590737;19;20449;-31
2022/12/19 07:55:52;;;;;;;50.53;32.80;;;11.20;64.10;;;;;;4590808;19;20021;-31
2022/12/19 07:57:23;;;;;;;49.83;29.70;;;11.20;64.10;;;;;;4590885;19;20082;-31
2022/12/19 07:58:54;;;;;;;40.70;27.48;;;11.20;64.30;;;;;;4590071;19;20475;-31
2022/12/19 08:00:25;;;;;;;56.15;32.47;;;11.20;64.10;;;;;;4590794;19;20014;-30